sensor_id;sensor_type;location;lat;lon;timestamp;temperature;humidity
28532;DHT22;15738;44.860;10.066;2022-10-16T00:02:36;18.70;99.90
28532;DHT22;15738;44.860;10.066;2022-10-16T00:05:21;18.70;99.90
28532;DHT22;15738;44.860;10.066;2022-10-16T00:08:08;18.70;99.90
28532;DHT22;15738;44.860;10.066;2022-10-16T00:11:09;18.70;99.90
28532;DHT22;15738;44.860;10.066;2022-10-16T00:13:58;18.70;99.90
28532;DHT22;15738;44.860;10.066;2022-10-16T00:16:44;18.70;99.90
28532;DHT22;15738;44.860;10.066;2022-10-16T00:19:30;18.70;99.90
28532;DHT22;15738;44.860;10.066;2022-10-16T00:22:16;18.70;99.90
28532;DHT22;15738;44.860;10.066;2022-10-16T00:25:01;18.60;99.90
28532;DHT22;15738;44.860;10.066;2022-10-16T00:27:47;18.70;99.90
28532;DHT22;15738;44.860;10.066;2022-10-16T00:30:33;18.60;99.90
28532;DHT22;15738;44.860;10.066;2022-10-16T00:33:19;18.60;99.90
28532;DHT22;15738;44.860;10.066;2022-10-16T00:36:05;18.60;99.90
28532;DHT22;15738;44.860;10.066;2022-10-16T00:38:54;18.60;99.90
28532;DHT22;15738;44.860;10.066;2022-10-16T00:41:40;18.70;99.90
28532;DHT22;15738;44.860;10.066;2022-10-16T00:44:55;18.60;99.90
28532;DHT22;15738;44.860;10.066;2022-10-16T00:47:43;18.60;99.90
28532;DHT22;15738;44.860;10.066;2022-10-16T00:50:33;18.60;99.90
28532;DHT22;15738;44.860;10.066;2022-10-16T00:53:19;18.60;99.90
28532;DHT22;15738;44.860;10.066;2022-10-16T00:56:06;18.60;99.90
28532;DHT22;15738;44.860;10.066;2022-10-16T00:58:51;18.60;99.90
28532;DHT22;15738;44.860;10.066;2022-10-16T01:01:37;18.60;99.90
28532;DHT22;15738;44.860;10.066;2022-10-16T01:04:24;18.60;99.90
28532;DHT22;15738;44.860;10.066;2022-10-16T01:13:12;18.50;99.90
28532;DHT22;15738;44.860;10.066;2022-10-16T01:16:07;18.50;99.90
28532;DHT22;15738;44.860;10.066;2022-10-16T01:19:26;18.50;99.90
28532;DHT22;15738;44.860;10.066;2022-10-16T01:22:10;18.50;99.90
28532;DHT22;15738;44.860;10.066;2022-10-16T01:24:59;18.50;99.90
28532;DHT22;15738;44.860;10.066;2022-10-16T01:27:47;18.50;99.90
28532;DHT22;15738;44.860;10.066;2022-10-16T01:30:34;18.50;99.90
28532;DHT22;15738;44.860;10.066;2022-10-16T01:33:24;18.50;99.90
28532;DHT22;15738;44.860;10.066;2022-10-16T01:36:21;18.50;99.90
28532;DHT22;15738;44.860;10.066;2022-10-16T01:39:10;18.50;99.90
28532;DHT22;15738;44.860;10.066;2022-10-16T01:42:19;18.50;99.90
28532;DHT22;15738;44.860;10.066;2022-10-16T01:45:07;18.50;99.90
28532;DHT22;15738;44.860;10.066;2022-10-16T01:47:54;18.50;99.90
28532;DHT22;15738;44.860;10.066;2022-10-16T01:50:41;18.50;99.90
28532;DHT22;15738;44.860;10.066;2022-10-16T01:53:29;18.50;99.90
28532;DHT22;15738;44.860;10.066;2022-10-16T01:56:17;18.50;99.90
28532;DHT22;15738;44.860;10.066;2022-10-16T01:59:07;18.50;99.90
28532;DHT22;15738;44.860;10.066;2022-10-16T02:01:58;18.50;99.90
28532;DHT22;15738;44.860;10.066;2022-10-16T02:07:30;18.40;99.90
28532;DHT22;15738;44.860;10.066;2022-10-16T02:10:17;18.40;99.90
28532;DHT22;15738;44.860;10.066;2022-10-16T02:13:19;18.40;99.90
28532;DHT22;15738;44.860;10.066;2022-10-16T02:16:08;18.40;99.90
28532;DHT22;15738;44.860;10.066;2022-10-16T02:18:54;18.40;99.90
28532;DHT22;15738;44.860;10.066;2022-10-16T02:21:59;18.40;99.90
28532;DHT22;15738;44.860;10.066;2022-10-16T02:24:58;18.40;99.90
28532;DHT22;15738;44.860;10.066;2022-10-16T02:30:51;18.40;99.90
28532;DHT22;15738;44.860;10.066;2022-10-16T02:33:40;18.40;99.90
28532;DHT22;15738;44.860;10.066;2022-10-16T02:36:27;18.40;99.90
28532;DHT22;15738;44.860;10.066;2022-10-16T02:39:14;18.40;99.90
28532;DHT22;15738;44.860;10.066;2022-10-16T02:42:00;18.30;99.90
28532;DHT22;15738;44.860;10.066;2022-10-16T02:44:46;18.30;99.90
28532;DHT22;15738;44.860;10.066;2022-10-16T02:47:32;18.30;99.90
28532;DHT22;15738;44.860;10.066;2022-10-16T02:50:18;18.30;99.90
28532;DHT22;15738;44.860;10.066;2022-10-16T02:53:03;18.30;99.90
28532;DHT22;15738;44.860;10.066;2022-10-16T02:55:49;18.30;99.90
28532;DHT22;15738;44.860;10.066;2022-10-16T02:58:34;18.30;99.90
28532;DHT22;15738;44.860;10.066;2022-10-16T03:01:20;18.20;99.90
28532;DHT22;15738;44.860;10.066;2022-10-16T03:04:06;18.30;99.90
28532;DHT22;15738;44.860;10.066;2022-10-16T03:06:51;18.30;99.90
28532;DHT22;15738;44.860;10.066;2022-10-16T03:09:37;18.20;99.90
28532;DHT22;15738;44.860;10.066;2022-10-16T03:12:22;18.20;99.90
28532;DHT22;15738;44.860;10.066;2022-10-16T03:15:08;18.30;99.90
28532;DHT22;15738;44.860;10.066;2022-10-16T03:17:55;18.20;99.90
28532;DHT22;15738;44.860;10.066;2022-10-16T03:20:45;18.20;99.90
28532;DHT22;15738;44.860;10.066;2022-10-16T03:23:31;18.20;99.90
28532;DHT22;15738;44.860;10.066;2022-10-16T03:26:16;18.20;99.90
28532;DHT22;15738;44.860;10.066;2022-10-16T03:29:02;18.20;99.90
28532;DHT22;15738;44.860;10.066;2022-10-16T03:31:48;18.20;99.90
28532;DHT22;15738;44.860;10.066;2022-10-16T03:34:34;18.10;99.90
28532;DHT22;15738;44.860;10.066;2022-10-16T03:37:20;18.10;99.90
28532;DHT22;15738;44.860;10.066;2022-10-16T03:40:06;18.10;99.90
28532;DHT22;15738;44.860;10.066;2022-10-16T03:42:53;18.10;99.90
28532;DHT22;15738;44.860;10.066;2022-10-16T03:45:42;18.10;99.90
28532;DHT22;15738;44.860;10.066;2022-10-16T03:48:29;18.10;99.90
28532;DHT22;15738;44.860;10.066;2022-10-16T03:51:15;18.10;99.90
28532;DHT22;15738;44.860;10.066;2022-10-16T03:54:00;18.10;99.90
28532;DHT22;15738;44.860;10.066;2022-10-16T03:56:46;18.10;99.90
28532;DHT22;15738;44.860;10.066;2022-10-16T03:59:31;18.10;99.90
28532;DHT22;15738;44.860;10.066;2022-10-16T04:02:17;18.10;99.90
28532;DHT22;15738;44.860;10.066;2022-10-16T04:05:03;18.10;99.90
28532;DHT22;15738;44.860;10.066;2022-10-16T04:07:48;18.10;99.90
28532;DHT22;15738;44.860;10.066;2022-10-16T04:10:34;18.10;99.90
28532;DHT22;15738;44.860;10.066;2022-10-16T04:13:20;18.10;99.90
28532;DHT22;15738;44.860;10.066;2022-10-16T04:16:05;18.00;99.90
28532;DHT22;15738;44.860;10.066;2022-10-16T04:18:51;18.10;99.90
28532;DHT22;15738;44.860;10.066;2022-10-16T04:21:37;18.00;99.90
28532;DHT22;15738;44.860;10.066;2022-10-16T04:24:23;18.00;99.90
28532;DHT22;15738;44.860;10.066;2022-10-16T04:27:08;18.00;99.90
28532;DHT22;15738;44.860;10.066;2022-10-16T04:29:54;18.00;99.90
28532;DHT22;15738;44.860;10.066;2022-10-16T04:32:40;18.00;99.90
28532;DHT22;15738;44.860;10.066;2022-10-16T04:35:26;18.00;99.90
28532;DHT22;15738;44.860;10.066;2022-10-16T04:38:12;18.00;99.90
28532;DHT22;15738;44.860;10.066;2022-10-16T04:40:57;18.00;99.90
28532;DHT22;15738;44.860;10.066;2022-10-16T04:43:43;18.00;99.90
28532;DHT22;15738;44.860;10.066;2022-10-16T04:46:29;18.00;99.90
28532;DHT22;15738;44.860;10.066;2022-10-16T04:49:15;18.00;99.90
28532;DHT22;15738;44.860;10.066;2022-10-16T04:52:00;18.00;99.90
28532;DHT22;15738;44.860;10.066;2022-10-16T04:54:46;18.00;99.90
28532;DHT22;15738;44.860;10.066;2022-10-16T04:57:32;18.00;99.90
28532;DHT22;15738;44.860;10.066;2022-10-16T05:00:19;18.00;99.90
28532;DHT22;15738;44.860;10.066;2022-10-16T05:03:05;17.90;99.90
28532;DHT22;15738;44.860;10.066;2022-10-16T05:05:53;17.90;99.90
28532;DHT22;15738;44.860;10.066;2022-10-16T05:08:38;17.90;99.90
28532;DHT22;15738;44.860;10.066;2022-10-16T05:11:24;17.90;99.90
28532;DHT22;15738;44.860;10.066;2022-10-16T05:14:10;17.60;99.90
28532;DHT22;15738;44.860;10.066;2022-10-16T05:17:02;17.90;99.90
28532;DHT22;15738;44.860;10.066;2022-10-16T05:19:47;17.90;99.90
28532;DHT22;15738;44.860;10.066;2022-10-16T05:22:33;17.80;99.90
28532;DHT22;15738;44.860;10.066;2022-10-16T05:25:18;17.80;99.90
28532;DHT22;15738;44.860;10.066;2022-10-16T05:28:04;17.80;99.90
28532;DHT22;15738;44.860;10.066;2022-10-16T05:30:50;17.80;99.90
28532;DHT22;15738;44.860;10.066;2022-10-16T05:33:36;17.80;99.90
28532;DHT22;15738;44.860;10.066;2022-10-16T05:36:22;17.80;99.90
28532;DHT22;15738;44.860;10.066;2022-10-16T05:39:08;17.80;99.90
28532;DHT22;15738;44.860;10.066;2022-10-16T05:41:53;17.80;99.90
28532;DHT22;15738;44.860;10.066;2022-10-16T05:44:39;17.80;99.90
28532;DHT22;15738;44.860;10.066;2022-10-16T05:47:25;17.80;99.90
28532;DHT22;15738;44.860;10.066;2022-10-16T05:50:11;17.70;99.90
28532;DHT22;15738;44.860;10.066;2022-10-16T05:52:57;17.80;99.90
28532;DHT22;15738;44.860;10.066;2022-10-16T05:55:42;17.70;99.90
28532;DHT22;15738;44.860;10.066;2022-10-16T05:58:33;17.80;99.90
28532;DHT22;15738;44.860;10.066;2022-10-16T06:01:21;17.70;99.90
28532;DHT22;15738;44.860;10.066;2022-10-16T06:04:09;17.70;99.90
28532;DHT22;15738;44.860;10.066;2022-10-16T06:07:00;17.80;99.90
28532;DHT22;15738;44.860;10.066;2022-10-16T06:09:48;17.70;99.90
28532;DHT22;15738;44.860;10.066;2022-10-16T06:12:35;17.80;99.90
28532;DHT22;15738;44.860;10.066;2022-10-16T06:15:20;17.80;99.90
28532;DHT22;15738;44.860;10.066;2022-10-16T06:18:06;17.80;99.90
28532;DHT22;15738;44.860;10.066;2022-10-16T06:20:52;17.80;99.90
28532;DHT22;15738;44.860;10.066;2022-10-16T06:23:37;17.90;99.90
28532;DHT22;15738;44.860;10.066;2022-10-16T06:26:25;17.90;99.90
28532;DHT22;15738;44.860;10.066;2022-10-16T06:29:12;17.90;99.90
28532;DHT22;15738;44.860;10.066;2022-10-16T06:31:57;17.90;99.90
28532;DHT22;15738;44.860;10.066;2022-10-16T06:34:43;17.90;99.90
28532;DHT22;15738;44.860;10.066;2022-10-16T06:37:29;17.90;99.90
28532;DHT22;15738;44.860;10.066;2022-10-16T06:40:15;18.00;99.90
28532;DHT22;15738;44.860;10.066;2022-10-16T06:43:00;18.00;99.90
28532;DHT22;15738;44.860;10.066;2022-10-16T06:45:56;18.00;99.90
28532;DHT22;15738;44.860;10.066;2022-10-16T06:48:42;18.00;99.90
28532;DHT22;15738;44.860;10.066;2022-10-16T06:51:28;18.00;99.90
28532;DHT22;15738;44.860;10.066;2022-10-16T06:54:15;18.00;99.90
28532;DHT22;15738;44.860;10.066;2022-10-16T06:57:01;18.00;99.90
28532;DHT22;15738;44.860;10.066;2022-10-16T06:59:47;18.10;99.90
28532;DHT22;15738;44.860;10.066;2022-10-16T07:02:39;18.10;99.90
28532;DHT22;15738;44.860;10.066;2022-10-16T07:05:24;18.10;99.90
28532;DHT22;15738;44.860;10.066;2022-10-16T07:08:10;18.10;99.90
28532;DHT22;15738;44.860;10.066;2022-10-16T07:11:03;18.20;99.90
28532;DHT22;15738;44.860;10.066;2022-10-16T07:13:49;18.20;99.90
28532;DHT22;15738;44.860;10.066;2022-10-16T07:16:40;18.20;99.90
28532;DHT22;15738;44.860;10.066;2022-10-16T07:19:26;18.20;99.90
28532;DHT22;15738;44.860;10.066;2022-10-16T07:22:17;18.20;99.90
28532;DHT22;15738;44.860;10.066;2022-10-16T07:25:03;18.30;99.90
28532;DHT22;15738;44.860;10.066;2022-10-16T07:27:50;18.30;99.90
28532;DHT22;15738;44.860;10.066;2022-10-16T07:30:38;18.40;99.90
28532;DHT22;15738;44.860;10.066;2022-10-16T07:33:24;18.40;99.90
28532;DHT22;15738;44.860;10.066;2022-10-16T07:36:10;18.50;99.90
28532;DHT22;15738;44.860;10.066;2022-10-16T07:39:00;18.50;99.90
28532;DHT22;15738;44.860;10.066;2022-10-16T07:41:46;18.50;99.90
28532;DHT22;15738;44.860;10.066;2022-10-16T07:44:31;18.60;99.90
28532;DHT22;15738;44.860;10.066;2022-10-16T07:47:17;18.70;99.90
28532;DHT22;15738;44.860;10.066;2022-10-16T07:50:03;18.70;99.90
28532;DHT22;15738;44.860;10.066;2022-10-16T07:52:49;18.80;99.90
28532;DHT22;15738;44.860;10.066;2022-10-16T07:55:35;18.90;99.90
28532;DHT22;15738;44.860;10.066;2022-10-16T07:58:20;18.90;99.90
28532;DHT22;15738;44.860;10.066;2022-10-16T08:01:09;19.00;99.90
28532;DHT22;15738;44.860;10.066;2022-10-16T08:03:55;19.00;99.90
28532;DHT22;15738;44.860;10.066;2022-10-16T08:06:41;19.00;99.90
28532;DHT22;15738;44.860;10.066;2022-10-16T08:09:28;19.10;99.90
28532;DHT22;15738;44.860;10.066;2022-10-16T08:12:14;19.10;99.90
28532;DHT22;15738;44.860;10.066;2022-10-16T08:14:59;19.10;99.90
28532;DHT22;15738;44.860;10.066;2022-10-16T08:17:54;19.20;99.90
28532;DHT22;15738;44.860;10.066;2022-10-16T08:20:41;19.30;99.90
28532;DHT22;15738;44.860;10.066;2022-10-16T08:23:28;19.40;99.90
28532;DHT22;15738;44.860;10.066;2022-10-16T08:26:13;19.50;99.90
28532;DHT22;15738;44.860;10.066;2022-10-16T08:28:59;19.50;99.90
28532;DHT22;15738;44.860;10.066;2022-10-16T08:31:44;19.60;99.90
28532;DHT22;15738;44.860;10.066;2022-10-16T08:34:30;19.70;99.90
28532;DHT22;15738;44.860;10.066;2022-10-16T08:37:16;19.70;99.90
28532;DHT22;15738;44.860;10.066;2022-10-16T08:40:01;19.90;99.90
28532;DHT22;15738;44.860;10.066;2022-10-16T08:49:02;20.00;99.90
28532;DHT22;15738;44.860;10.066;2022-10-16T08:51:49;20.10;99.90
28532;DHT22;15738;44.860;10.066;2022-10-16T08:54:39;20.10;99.90
28532;DHT22;15738;44.860;10.066;2022-10-16T08:57:27;20.20;99.90
28532;DHT22;15738;44.860;10.066;2022-10-16T09:00:15;20.30;99.90
28532;DHT22;15738;44.860;10.066;2022-10-16T09:03:14;20.30;99.90
28532;DHT22;15738;44.860;10.066;2022-10-16T09:09:11;20.30;99.90
28532;DHT22;15738;44.860;10.066;2022-10-16T09:12:12;20.40;99.90
28532;DHT22;15738;44.860;10.066;2022-10-16T09:18:48;20.50;99.90
28532;DHT22;15738;44.860;10.066;2022-10-16T09:21:42;20.50;99.90
28532;DHT22;15738;44.860;10.066;2022-10-16T09:24:29;20.50;99.90
28532;DHT22;15738;44.860;10.066;2022-10-16T09:27:15;20.60;99.90
28532;DHT22;15738;44.860;10.066;2022-10-16T09:30:06;20.60;99.90
28532;DHT22;15738;44.860;10.066;2022-10-16T09:32:57;20.60;99.90
28532;DHT22;15738;44.860;10.066;2022-10-16T09:35:45;20.70;99.90
28532;DHT22;15738;44.860;10.066;2022-10-16T09:38:34;20.70;99.90
28532;DHT22;15738;44.860;10.066;2022-10-16T09:41:22;20.70;99.90
28532;DHT22;15738;44.860;10.066;2022-10-16T09:44:30;20.80;99.90
28532;DHT22;15738;44.860;10.066;2022-10-16T09:47:19;20.70;99.90
28532;DHT22;15738;44.860;10.066;2022-10-16T09:50:21;20.80;99.90
28532;DHT22;15738;44.860;10.066;2022-10-16T09:53:12;20.80;99.90
28532;DHT22;15738;44.860;10.066;2022-10-16T09:55:58;20.90;99.90
28532;DHT22;15738;44.860;10.066;2022-10-16T09:58:50;21.00;99.90
28532;DHT22;15738;44.860;10.066;2022-10-16T10:04:48;21.10;99.90
28532;DHT22;15738;44.860;10.066;2022-10-16T10:07:39;21.20;99.90
28532;DHT22;15738;44.860;10.066;2022-10-16T10:10:30;21.30;99.90
28532;DHT22;15738;44.860;10.066;2022-10-16T10:13:20;21.30;99.90
28532;DHT22;15738;44.860;10.066;2022-10-16T10:16:07;21.50;99.90
28532;DHT22;15738;44.860;10.066;2022-10-16T10:19:00;21.50;99.90
28532;DHT22;15738;44.860;10.066;2022-10-16T10:21:46;21.50;99.90
28532;DHT22;15738;44.860;10.066;2022-10-16T10:24:32;21.50;99.90
28532;DHT22;15738;44.860;10.066;2022-10-16T10:27:18;21.40;99.90
28532;DHT22;15738;44.860;10.066;2022-10-16T10:31:09;21.50;99.90
28532;DHT22;15738;44.860;10.066;2022-10-16T10:33:49;21.50;99.90
28532;DHT22;15738;44.860;10.066;2022-10-16T10:36:39;21.60;99.90
28532;DHT22;15738;44.860;10.066;2022-10-16T10:39:35;21.60;99.90
28532;DHT22;15738;44.860;10.066;2022-10-16T10:42:51;21.60;99.90
28532;DHT22;15738;44.860;10.066;2022-10-16T10:45:45;21.70;99.90
28532;DHT22;15738;44.860;10.066;2022-10-16T10:51:23;21.80;99.90
28532;DHT22;15738;44.860;10.066;2022-10-16T10:54:34;21.80;99.90
28532;DHT22;15738;44.860;10.066;2022-10-16T10:57:28;21.90;99.90
28532;DHT22;15738;44.860;10.066;2022-10-16T11:05:58;21.90;99.90
28532;DHT22;15738;44.860;10.066;2022-10-16T11:11:48;21.90;99.90
28532;DHT22;15738;44.860;10.066;2022-10-16T11:17:41;22.00;99.90
28532;DHT22;15738;44.860;10.066;2022-10-16T11:20:40;22.10;99.90
28532;DHT22;15738;44.860;10.066;2022-10-16T11:23:43;22.10;99.90
28532;DHT22;15738;44.860;10.066;2022-10-16T11:26:34;22.10;99.90
28532;DHT22;15738;44.860;10.066;2022-10-16T11:29:26;22.20;99.90
28532;DHT22;15738;44.860;10.066;2022-10-16T11:32:22;22.30;99.90
28532;DHT22;15738;44.860;10.066;2022-10-16T11:35:31;22.30;99.90
28532;DHT22;15738;44.860;10.066;2022-10-16T11:38:29;22.30;99.90
28532;DHT22;15738;44.860;10.066;2022-10-16T11:56:57;22.60;99.90
28532;DHT22;15738;44.860;10.066;2022-10-16T12:02:38;22.60;99.90
28532;DHT22;15738;44.860;10.066;2022-10-16T12:08:18;22.50;99.90
28532;DHT22;15738;44.860;10.066;2022-10-16T12:11:32;22.50;99.90
28532;DHT22;15738;44.860;10.066;2022-10-16T12:17:03;22.60;99.90
28532;DHT22;15738;44.860;10.066;2022-10-16T12:23:06;22.60;99.90
28532;DHT22;15738;44.860;10.066;2022-10-16T12:25:57;22.70;99.90
28532;DHT22;15738;44.860;10.066;2022-10-16T12:28:44;22.70;99.90
28532;DHT22;15738;44.860;10.066;2022-10-16T12:31:42;22.80;99.90
28532;DHT22;15738;44.860;10.066;2022-10-16T12:34:42;22.90;99.90
28532;DHT22;15738;44.860;10.066;2022-10-16T12:37:38;22.90;99.90
28532;DHT22;15738;44.860;10.066;2022-10-16T12:40:26;23.00;99.90
28532;DHT22;15738;44.860;10.066;2022-10-16T12:43:36;23.00;99.90
28532;DHT22;15738;44.860;10.066;2022-10-16T12:49:49;22.90;99.90
28532;DHT22;15738;44.860;10.066;2022-10-16T12:52:38;22.80;99.90
28532;DHT22;15738;44.860;10.066;2022-10-16T12:55:24;22.80;99.90
28532;DHT22;15738;44.860;10.066;2022-10-16T12:58:32;22.80;99.90
28532;DHT22;15738;44.860;10.066;2022-10-16T13:16:58;23.00;99.90
28532;DHT22;15738;44.860;10.066;2022-10-16T13:23:33;23.00;99.90
28532;DHT22;15738;44.860;10.066;2022-10-16T13:29:13;23.00;99.90
28532;DHT22;15738;44.860;10.066;2022-10-16T13:32:01;23.00;99.90
28532;DHT22;15738;44.860;10.066;2022-10-16T13:34:52;23.10;99.90
28532;DHT22;15738;44.860;10.066;2022-10-16T13:37:39;23.10;99.90
28532;DHT22;15738;44.860;10.066;2022-10-16T13:40:25;23.20;99.90
28532;DHT22;15738;44.860;10.066;2022-10-16T13:43:11;23.20;99.90
28532;DHT22;15738;44.860;10.066;2022-10-16T13:46:13;23.30;99.90
28532;DHT22;15738;44.860;10.066;2022-10-16T13:49:04;23.30;99.90
28532;DHT22;15738;44.860;10.066;2022-10-16T13:51:59;23.30;99.90
28532;DHT22;15738;44.860;10.066;2022-10-16T13:54:46;23.30;99.90
28532;DHT22;15738;44.860;10.066;2022-10-16T13:57:32;23.30;99.90
28532;DHT22;15738;44.860;10.066;2022-10-16T14:03:11;23.30;99.90
28532;DHT22;15738;44.860;10.066;2022-10-16T14:06:01;23.20;99.90
28532;DHT22;15738;44.860;10.066;2022-10-16T14:09:06;23.20;99.90
28532;DHT22;15738;44.860;10.066;2022-10-16T14:12:07;23.20;99.90
28532;DHT22;15738;44.860;10.066;2022-10-16T14:14:54;23.20;99.90
28532;DHT22;15738;44.860;10.066;2022-10-16T14:17:43;23.20;99.90
28532;DHT22;15738;44.860;10.066;2022-10-16T14:20:33;23.10;99.90
28532;DHT22;15738;44.860;10.066;2022-10-16T14:23:23;23.10;99.90
28532;DHT22;15738;44.860;10.066;2022-10-16T14:26:16;23.10;99.90
28532;DHT22;15738;44.860;10.066;2022-10-16T14:29:13;23.00;99.90
28532;DHT22;15738;44.860;10.066;2022-10-16T14:32:05;23.00;99.90
28532;DHT22;15738;44.860;10.066;2022-10-16T14:34:54;23.00;99.90
28532;DHT22;15738;44.860;10.066;2022-10-16T14:37:40;22.90;99.90
28532;DHT22;15738;44.860;10.066;2022-10-16T14:40:28;22.30;99.90
28532;DHT22;15738;44.860;10.066;2022-10-16T14:43:21;22.90;99.90
28532;DHT22;15738;44.860;10.066;2022-10-16T14:46:13;22.90;99.90
28532;DHT22;15738;44.860;10.066;2022-10-16T14:49:04;22.90;99.90
28532;DHT22;15738;44.860;10.066;2022-10-16T14:51:57;22.90;99.90
28532;DHT22;15738;44.860;10.066;2022-10-16T14:54:43;22.90;99.90
28532;DHT22;15738;44.860;10.066;2022-10-16T14:57:33;22.90;99.90
28532;DHT22;15738;44.860;10.066;2022-10-16T15:00:22;22.90;99.90
28532;DHT22;15738;44.860;10.066;2022-10-16T15:03:09;22.90;99.90
28532;DHT22;15738;44.860;10.066;2022-10-16T15:05:55;22.80;99.90
28532;DHT22;15738;44.860;10.066;2022-10-16T15:08:41;22.80;99.90
28532;DHT22;15738;44.860;10.066;2022-10-16T15:11:27;22.70;99.90
28532;DHT22;15738;44.860;10.066;2022-10-16T15:14:13;22.70;99.90
28532;DHT22;15738;44.860;10.066;2022-10-16T15:17:04;22.70;99.90
28532;DHT22;15738;44.860;10.066;2022-10-16T15:19:50;22.70;99.90
28532;DHT22;15738;44.860;10.066;2022-10-16T15:22:36;22.60;99.90
28532;DHT22;15738;44.860;10.066;2022-10-16T15:25:33;22.60;99.90
28532;DHT22;15738;44.860;10.066;2022-10-16T15:28:20;22.60;99.90
28532;DHT22;15738;44.860;10.066;2022-10-16T15:31:06;22.50;99.90
28532;DHT22;15738;44.860;10.066;2022-10-16T15:33:53;22.50;99.90
28532;DHT22;15738;44.860;10.066;2022-10-16T15:36:41;22.50;99.90
28532;DHT22;15738;44.860;10.066;2022-10-16T15:39:27;22.50;99.90
28532;DHT22;15738;44.860;10.066;2022-10-16T15:42:12;22.50;99.90
28532;DHT22;15738;44.860;10.066;2022-10-16T15:44:59;22.50;99.90
28532;DHT22;15738;44.860;10.066;2022-10-16T15:47:45;22.40;99.90
28532;DHT22;15738;44.860;10.066;2022-10-16T15:50:32;22.40;99.90
28532;DHT22;15738;44.860;10.066;2022-10-16T15:53:18;22.40;99.90
28532;DHT22;15738;44.860;10.066;2022-10-16T15:56:05;22.30;99.90
28532;DHT22;15738;44.860;10.066;2022-10-16T15:58:52;22.30;99.90
28532;DHT22;15738;44.860;10.066;2022-10-16T16:01:38;22.20;99.90
28532;DHT22;15738;44.860;10.066;2022-10-16T16:04:24;22.20;99.90
28532;DHT22;15738;44.860;10.066;2022-10-16T16:07:28;22.20;99.90
28532;DHT22;15738;44.860;10.066;2022-10-16T16:10:14;22.10;99.90
28532;DHT22;15738;44.860;10.066;2022-10-16T16:13:00;22.10;99.90
28532;DHT22;15738;44.860;10.066;2022-10-16T16:15:45;22.10;99.90
28532;DHT22;15738;44.860;10.066;2022-10-16T16:18:31;22.00;99.90
28532;DHT22;15738;44.860;10.066;2022-10-16T16:21:17;21.90;99.90
28532;DHT22;15738;44.860;10.066;2022-10-16T16:24:03;21.90;99.90
28532;DHT22;15738;44.860;10.066;2022-10-16T16:26:53;21.90;99.90
28532;DHT22;15738;44.860;10.066;2022-10-16T16:29:39;21.80;99.90
28532;DHT22;15738;44.860;10.066;2022-10-16T16:32:25;21.70;99.90
28532;DHT22;15738;44.860;10.066;2022-10-16T16:35:11;21.60;99.90
28532;DHT22;15738;44.860;10.066;2022-10-16T16:37:56;21.60;99.90
28532;DHT22;15738;44.860;10.066;2022-10-16T16:40:42;21.50;99.90
28532;DHT22;15738;44.860;10.066;2022-10-16T16:43:28;21.40;99.90
28532;DHT22;15738;44.860;10.066;2022-10-16T16:46:14;21.30;99.90
28532;DHT22;15738;44.860;10.066;2022-10-16T16:49:01;21.20;99.90
28532;DHT22;15738;44.860;10.066;2022-10-16T16:51:47;21.20;99.90
28532;DHT22;15738;44.860;10.066;2022-10-16T16:54:33;21.10;99.90
28532;DHT22;15738;44.860;10.066;2022-10-16T16:57:23;21.00;99.90
28532;DHT22;15738;44.860;10.066;2022-10-16T17:00:10;21.00;99.90
28532;DHT22;15738;44.860;10.066;2022-10-16T17:02:56;20.90;99.90
28532;DHT22;15738;44.860;10.066;2022-10-16T17:05:42;20.90;99.90
28532;DHT22;15738;44.860;10.066;2022-10-16T17:08:28;20.80;99.90
28532;DHT22;15738;44.860;10.066;2022-10-16T17:11:21;20.70;99.90
28532;DHT22;15738;44.860;10.066;2022-10-16T17:14:07;20.60;99.90
28532;DHT22;15738;44.860;10.066;2022-10-16T17:16:53;20.60;99.90
28532;DHT22;15738;44.860;10.066;2022-10-16T17:19:38;20.50;99.90
28532;DHT22;15738;44.860;10.066;2022-10-16T17:22:24;20.40;99.90
28532;DHT22;15738;44.860;10.066;2022-10-16T17:25:10;20.40;99.90
28532;DHT22;15738;44.860;10.066;2022-10-16T17:27:56;20.30;99.90
28532;DHT22;15738;44.860;10.066;2022-10-16T17:30:42;20.20;99.90
28532;DHT22;15738;44.860;10.066;2022-10-16T17:33:28;20.20;99.90
28532;DHT22;15738;44.860;10.066;2022-10-16T17:36:14;20.10;99.90
28532;DHT22;15738;44.860;10.066;2022-10-16T17:39:06;20.10;99.90
28532;DHT22;15738;44.860;10.066;2022-10-16T17:41:52;20.00;99.90
28532;DHT22;15738;44.860;10.066;2022-10-16T17:44:38;20.00;99.90
28532;DHT22;15738;44.860;10.066;2022-10-16T17:47:23;19.90;99.90
28532;DHT22;15738;44.860;10.066;2022-10-16T17:50:09;19.90;99.90
28532;DHT22;15738;44.860;10.066;2022-10-16T17:53:00;19.80;99.90
28532;DHT22;15738;44.860;10.066;2022-10-16T17:55:45;19.80;99.90
28532;DHT22;15738;44.860;10.066;2022-10-16T17:58:31;19.70;99.90
28532;DHT22;15738;44.860;10.066;2022-10-16T18:01:23;19.60;99.90
28532;DHT22;15738;44.860;10.066;2022-10-16T18:04:12;19.60;99.90
28532;DHT22;15738;44.860;10.066;2022-10-16T18:06:59;19.50;99.90
28532;DHT22;15738;44.860;10.066;2022-10-16T18:09:45;19.50;99.90
28532;DHT22;15738;44.860;10.066;2022-10-16T18:12:51;19.40;99.90
28532;DHT22;15738;44.860;10.066;2022-10-16T18:15:37;19.40;99.90
28532;DHT22;15738;44.860;10.066;2022-10-16T18:18:22;19.30;99.90
28532;DHT22;15738;44.860;10.066;2022-10-16T18:21:16;19.30;99.90
28532;DHT22;15738;44.860;10.066;2022-10-16T18:24:02;19.20;99.90
28532;DHT22;15738;44.860;10.066;2022-10-16T18:26:48;19.10;99.90
28532;DHT22;15738;44.860;10.066;2022-10-16T18:29:34;19.10;99.90
28532;DHT22;15738;44.860;10.066;2022-10-16T18:32:19;19.10;99.90
28532;DHT22;15738;44.860;10.066;2022-10-16T18:35:05;19.10;99.90
28532;DHT22;15738;44.860;10.066;2022-10-16T18:37:51;19.00;99.90
28532;DHT22;15738;44.860;10.066;2022-10-16T18:40:40;19.00;99.90
28532;DHT22;15738;44.860;10.066;2022-10-16T18:43:29;18.90;99.90
28532;DHT22;15738;44.860;10.066;2022-10-16T18:46:20;18.90;99.90
28532;DHT22;15738;44.860;10.066;2022-10-16T18:49:06;18.80;99.90
28532;DHT22;15738;44.860;10.066;2022-10-16T18:51:52;18.80;99.90
28532;DHT22;15738;44.860;10.066;2022-10-16T18:54:41;18.80;99.90
28532;DHT22;15738;44.860;10.066;2022-10-16T18:57:27;18.70;99.90
28532;DHT22;15738;44.860;10.066;2022-10-16T19:00:15;18.70;99.90
28532;DHT22;15738;44.860;10.066;2022-10-16T19:03:00;18.60;99.90
28532;DHT22;15738;44.860;10.066;2022-10-16T19:05:46;18.60;99.90
28532;DHT22;15738;44.860;10.066;2022-10-16T19:08:31;18.60;99.90